createdAt,value
2019-03-31T00:01:16.642Z,3.97
2019-03-31T00:03:45.042Z,5.00
2019-03-31T00:06:13.431Z,3.70
2019-03-31T00:08:41.841Z,3.93
2019-03-31T00:11:10.231Z,4.10
2019-03-31T00:13:38.618Z,5.07
2019-03-31T00:16:07.032Z,4.50
2019-03-31T00:18:35.418Z,4.20
2019-03-31T00:21:03.813Z,4.13
2019-03-31T00:23:32.217Z,4.87
2019-03-31T00:26:00.600Z,4.90
2019-03-31T00:28:29.018Z,5.47
2019-03-31T00:30:57.404Z,5.57
2019-03-31T00:33:25.791Z,4.97
2019-03-31T00:35:54.208Z,4.83
2019-03-31T00:38:22.603Z,4.80
2019-03-31T00:40:50.995Z,4.63
2019-03-31T00:43:19.409Z,4.47
2019-03-31T00:45:47.797Z,4.47
2019-03-31T00:48:16.185Z,4.10
2019-03-31T00:50:44.591Z,3.80
2019-03-31T00:53:12.980Z,4.70
2019-03-31T00:55:41.377Z,5.27
2019-03-31T00:58:09.791Z,5.00
2019-03-31T01:00:48.543Z,4.37
2019-03-31T01:03:18.815Z,4.37
2019-03-31T01:05:47.683Z,4.60
2019-03-31T01:08:16.238Z,4.70
2019-03-31T01:10:45.063Z,4.70
2019-03-31T01:13:14.466Z,4.13
2019-03-31T01:15:43.024Z,3.93
2019-03-31T01:18:12.164Z,4.40
2019-03-31T01:20:40.629Z,4.27
2019-03-31T01:23:09.357Z,4.73
2019-03-31T01:25:37.840Z,5.20
2019-03-31T01:28:06.362Z,4.93
2019-03-31T01:30:34.822Z,4.53
2019-03-31T01:33:03.412Z,4.30
2019-03-31T01:35:31.940Z,4.23
2019-03-31T01:38:00.325Z,4.13
2019-03-31T01:40:28.978Z,4.50
2019-03-31T01:42:57.364Z,4.30
2019-03-31T01:45:26.035Z,3.97
2019-03-31T01:47:54.439Z,3.90
2019-03-31T01:50:23.107Z,4.73
2019-03-31T01:52:51.486Z,4.83
2019-03-31T01:55:19.896Z,4.67
2019-03-31T01:57:48.287Z,4.03
2019-03-31T02:00:35.268Z,4.53
2019-03-31T02:03:03.934Z,4.60
2019-03-31T02:05:32.326Z,4.07
2019-03-31T02:08:01.057Z,4.13
2019-03-31T02:10:29.449Z,4.07
2019-03-31T02:12:58.235Z,4.20
2019-03-31T02:15:26.702Z,4.10
2019-03-31T02:17:55.098Z,4.03
2019-03-31T02:20:23.514Z,4.63
2019-03-31T02:22:51.904Z,4.67
2019-03-31T02:25:20.571Z,5.47
2019-03-31T02:27:48.980Z,4.90
2019-03-31T02:30:17.507Z,4.77
2019-03-31T02:32:45.899Z,4.20
2019-03-31T02:35:14.498Z,4.97
2019-03-31T02:37:42.887Z,4.53
2019-03-31T02:40:11.411Z,4.47
2019-03-31T02:42:39.825Z,3.80
2019-03-31T02:45:08.548Z,3.53
2019-03-31T02:47:36.940Z,4.57
2019-03-31T02:50:07.174Z,4.23
2019-03-31T02:52:35.558Z,4.43
2019-03-31T02:55:04.402Z,5.00
2019-03-31T02:57:33.343Z,4.83
2019-03-31T03:00:02.820Z,4.80
2019-03-31T03:02:42.203Z,4.43
2019-03-31T03:05:18.881Z,4.70
2019-03-31T03:07:37.416Z,4.53
2019-03-31T03:10:06.135Z,4.67
2019-03-31T03:12:37.573Z,4.77
2019-03-31T03:15:07.514Z,4.57
2019-03-31T03:17:35.973Z,4.17
2019-03-31T03:20:05.325Z,4.33
2019-03-31T03:22:33.722Z,4.07
2019-03-31T03:25:02.172Z,4.90
2019-03-31T03:27:30.536Z,5.17
2019-03-31T03:29:58.924Z,5.03
2019-03-31T03:32:27.314Z,5.10
2019-03-31T03:34:55.743Z,5.20
2019-03-31T03:37:24.118Z,5.00
2019-03-31T03:39:52.511Z,4.80
2019-03-31T03:42:20.923Z,5.23
2019-03-31T03:44:49.310Z,5.07
2019-03-31T03:47:17.693Z,5.00
2019-03-31T03:49:46.105Z,4.77
2019-03-31T03:52:14.496Z,4.27
2019-03-31T03:54:42.886Z,4.70
2019-03-31T03:57:11.296Z,5.20
2019-03-31T03:59:39.689Z,5.00
2019-03-31T04:02:08.067Z,4.43
2019-03-31T04:04:36.477Z,4.10
2019-03-31T04:07:04.863Z,4.27
2019-03-31T04:09:33.247Z,4.13
2019-03-31T04:12:01.657Z,4.83
2019-03-31T04:14:30.045Z,4.53
2019-03-31T04:16:58.446Z,4.20
2019-03-31T04:19:26.863Z,4.03
2019-03-31T04:21:55.251Z,4.83
2019-03-31T04:24:23.635Z,5.50
2019-03-31T04:26:52.039Z,5.30
2019-03-31T04:29:20.782Z,4.80
2019-03-31T04:31:49.171Z,5.43
2019-03-31T04:34:17.588Z,4.77
2019-03-31T04:36:45.974Z,4.40
2019-03-31T04:39:14.366Z,4.00
2019-03-31T04:41:42.779Z,4.47
2019-03-31T04:44:11.183Z,4.83
2019-03-31T04:46:39.573Z,4.83
2019-03-31T04:49:07.989Z,4.93
2019-03-31T04:51:36.372Z,4.10
2019-03-31T04:54:05.127Z,4.37
2019-03-31T04:56:33.529Z,4.20
2019-03-31T04:59:01.921Z,4.20
2019-03-31T05:01:30.386Z,5.17
2019-03-31T05:04:04.977Z,4.40
2019-03-31T05:06:28.901Z,4.30
2019-03-31T05:08:57.302Z,4.30
2019-03-31T05:11:25.778Z,4.33
2019-03-31T05:13:54.189Z,3.73
2019-03-31T05:16:22.566Z,4.33
2019-03-31T05:18:50.958Z,4.83
2019-03-31T05:21:19.368Z,4.90
2019-03-31T05:23:47.751Z,4.70
2019-03-31T05:26:16.167Z,4.43
2019-03-31T05:28:44.558Z,5.60
2019-03-31T05:31:12.942Z,5.40
2019-03-31T05:33:41.345Z,4.90
2019-03-31T05:36:09.733Z,4.50
2019-03-31T05:38:38.148Z,4.37
2019-03-31T05:41:06.537Z,4.47
2019-03-31T05:43:34.935Z,4.87
2019-03-31T05:46:03.351Z,5.10
2019-03-31T05:48:31.734Z,5.10
2019-03-31T05:51:00.119Z,5.00
2019-03-31T05:53:28.540Z,5.17
2019-03-31T05:55:56.930Z,4.97
2019-03-31T05:58:25.323Z,4.90
2019-03-31T06:00:54.063Z,4.47
2019-03-31T06:03:22.444Z,4.80
2019-03-31T06:05:50.830Z,5.00
2019-03-31T06:08:19.234Z,4.50
2019-03-31T06:10:47.630Z,5.20
2019-03-31T06:13:16.024Z,5.03
2019-03-31T06:15:44.450Z,5.87
2019-03-31T06:18:12.839Z,5.63
2019-03-31T06:20:41.225Z,5.50
2019-03-31T06:23:09.963Z,6.07
2019-03-31T06:25:38.348Z,5.27
2019-03-31T06:28:06.730Z,5.93
2019-03-31T06:30:35.135Z,5.27
2019-03-31T06:33:03.551Z,5.80
2019-03-31T06:35:31.941Z,6.13
2019-03-31T06:38:00.329Z,5.83
2019-03-31T06:40:28.746Z,5.37
2019-03-31T06:42:57.204Z,6.20
2019-03-31T06:45:25.594Z,5.83
2019-03-31T06:47:54.003Z,5.73
2019-03-31T06:50:22.391Z,5.90
2019-03-31T06:52:50.784Z,5.63
2019-03-31T06:55:19.198Z,5.50
2019-03-31T06:57:47.588Z,6.00
2019-03-31T07:00:16.223Z,5.63
2019-03-31T07:02:44.635Z,5.40
2019-03-31T07:05:13.027Z,5.97
2019-03-31T07:07:41.421Z,6.20
2019-03-31T07:10:09.920Z,5.90
2019-03-31T07:12:38.303Z,5.37
2019-03-31T07:15:08.030Z,6.23
2019-03-31T07:17:36.506Z,6.40
2019-03-31T07:20:08.303Z,5.97
2019-03-31T07:22:36.694Z,5.90
2019-03-31T07:25:07.843Z,5.37
2019-03-31T07:27:36.682Z,5.87
2019-03-31T07:30:08.422Z,6.57
2019-03-31T07:32:36.960Z,6.10
2019-03-31T07:35:18.259Z,6.20
2019-03-31T07:37:47.566Z,6.23
2019-03-31T07:40:19.150Z,5.80
2019-03-31T07:42:50.881Z,6.43
2019-03-31T07:45:18.112Z,6.70
2019-03-31T07:47:46.536Z,6.23
2019-03-31T07:50:17.723Z,6.00
2019-03-31T07:52:46.119Z,5.90
2019-03-31T07:55:16.453Z,5.80
2019-03-31T07:57:45.199Z,6.30
2019-03-31T08:00:19.262Z,6.43
2019-03-31T08:02:49.208Z,6.17
2019-03-31T08:05:32.096Z,6.63
2019-03-31T08:07:48.501Z,6.47
2019-03-31T08:10:18.618Z,6.10
2019-03-31T08:12:47.008Z,6.30
2019-03-31T08:15:15.742Z,5.60
2019-03-31T08:17:44.247Z,6.00
2019-03-31T08:20:15.038Z,6.27
2019-03-31T08:22:43.438Z,6.00
2019-03-31T08:25:13.630Z,6.40
2019-03-31T08:27:42.033Z,6.67
2019-03-31T08:30:12.764Z,6.40
2019-03-31T08:32:41.661Z,6.53
2019-03-31T08:35:10.798Z,6.90
2019-03-31T08:37:39.193Z,6.37
2019-03-31T08:40:11.847Z,6.63
2019-03-31T08:42:40.238Z,7.10
2019-03-31T08:45:09.479Z,7.10
2019-03-31T08:47:38.414Z,7.43
2019-03-31T08:50:08.040Z,7.10
2019-03-31T08:52:36.437Z,6.80
2019-03-31T08:55:05.909Z,7.53
2019-03-31T08:57:34.844Z,7.47
2019-03-31T09:00:04.978Z,6.53
2019-03-31T09:02:34.741Z,6.30
2019-03-31T09:05:04.178Z,7.97
2019-03-31T09:07:32.596Z,8.43
2019-03-31T09:10:01.096Z,8.53
2019-03-31T09:12:29.496Z,8.33
2019-03-31T09:14:57.916Z,7.78
2019-03-31T09:17:26.306Z,8.60
2019-03-31T09:19:54.701Z,8.37
2019-03-31T09:22:23.138Z,9.20
2019-03-31T09:24:51.616Z,8.97
2019-03-31T09:27:20.016Z,9.87
2019-03-31T09:29:48.878Z,10.13
2019-03-31T09:32:17.274Z,9.27
2019-03-31T09:34:45.946Z,10.60
2019-03-31T09:37:14.373Z,9.97
2019-03-31T09:39:42.779Z,10.10
2019-03-31T09:42:11.177Z,10.83
2019-03-31T09:44:39.610Z,9.50
2019-03-31T09:47:08.072Z,9.73
2019-03-31T09:49:36.476Z,12.53
2019-03-31T09:52:05.137Z,10.30
2019-03-31T09:54:33.526Z,9.83
2019-03-31T09:57:01.927Z,10.83
2019-03-31T09:59:30.479Z,10.67
2019-03-31T10:01:58.887Z,11.90
2019-03-31T10:04:27.303Z,10.67
2019-03-31T10:06:56.463Z,11.53
2019-03-31T10:09:25.502Z,11.13
2019-03-31T10:11:54.150Z,10.43
2019-03-31T10:14:22.569Z,11.43
2019-03-31T10:16:50.978Z,10.73
2019-03-31T10:19:19.382Z,11.90
2019-03-31T10:21:47.806Z,10.90
2019-03-31T10:24:16.217Z,10.17
2019-03-31T10:26:44.613Z,9.90
2019-03-31T10:29:13.169Z,10.47
2019-03-31T10:31:41.567Z,9.87
2019-03-31T10:34:09.976Z,10.50
2019-03-31T10:36:44.420Z,10.30
2019-03-31T10:39:09.365Z,9.33
2019-03-31T10:41:37.774Z,10.10
2019-03-31T10:44:06.205Z,9.53
2019-03-31T10:46:34.606Z,10.47
2019-03-31T10:49:03.009Z,10.20
2019-03-31T10:51:31.451Z,7.87
2019-03-31T10:53:59.842Z,7.40
2019-03-31T10:56:28.241Z,7.87
2019-03-31T10:58:56.733Z,8.80
2019-03-31T11:01:25.131Z,7.90
2019-03-31T11:03:53.528Z,8.67
2019-03-31T11:06:22.283Z,8.57
2019-03-31T11:08:50.682Z,9.80
2019-03-31T11:11:19.151Z,10.03
2019-03-31T11:13:47.648Z,9.27
2019-03-31T11:16:16.317Z,8.87
2019-03-31T11:18:44.715Z,8.33
2019-03-31T11:21:14.766Z,8.27
2019-03-31T11:23:43.182Z,7.10
2019-03-31T11:26:11.569Z,6.00
2019-03-31T11:28:39.995Z,7.17
2019-03-31T11:31:08.387Z,6.53
2019-03-31T11:33:36.795Z,7.73
2019-03-31T11:36:05.224Z,7.77
2019-03-31T11:38:33.614Z,7.50
2019-03-31T11:41:02.040Z,7.63
2019-03-31T11:43:30.501Z,6.53
2019-03-31T11:45:58.903Z,6.57
2019-03-31T11:48:27.319Z,7.70
2019-03-31T11:50:55.719Z,5.90
2019-03-31T11:53:24.112Z,4.97
2019-03-31T11:55:52.528Z,7.70
2019-03-31T11:58:20.920Z,7.00
2019-03-31T12:00:50.963Z,6.63
2019-03-31T12:03:19.386Z,8.50
2019-03-31T12:05:47.855Z,6.27
2019-03-31T12:08:16.249Z,6.73
2019-03-31T12:10:44.681Z,6.40
2019-03-31T12:13:13.071Z,8.47
2019-03-31T12:15:41.476Z,7.43
2019-03-31T12:18:09.890Z,7.67
2019-03-31T12:20:38.291Z,7.37
2019-03-31T12:23:06.689Z,6.87
2019-03-31T12:25:35.113Z,9.00
2019-03-31T12:28:03.510Z,7.30
2019-03-31T12:30:31.907Z,6.20
2019-03-31T12:33:00.325Z,6.20
2019-03-31T12:35:28.725Z,4.80
2019-03-31T12:37:57.114Z,6.07
2019-03-31T12:40:36.268Z,6.80
2019-03-31T12:43:05.029Z,6.60
2019-03-31T12:45:33.421Z,6.03
2019-03-31T12:48:02.197Z,6.17
2019-03-31T12:50:30.661Z,6.20
2019-03-31T12:52:59.055Z,5.77
2019-03-31T12:55:27.461Z,5.57
2019-03-31T12:57:55.859Z,6.10
2019-03-31T13:00:24.252Z,5.60
2019-03-31T13:02:52.665Z,5.30
2019-03-31T13:05:21.061Z,5.93
2019-03-31T13:07:56.371Z,5.37
2019-03-31T13:10:19.607Z,7.17
2019-03-31T13:12:48.010Z,7.97
2019-03-31T13:15:16.407Z,8.47
2019-03-31T13:17:44.837Z,7.77
2019-03-31T13:20:13.673Z,8.23
2019-03-31T13:22:45.644Z,8.70
2019-03-31T13:25:13.292Z,8.27
2019-03-31T13:27:41.682Z,9.67
2019-03-31T13:30:10.758Z,23.83
2019-03-31T13:32:39.188Z,11.50
2019-03-31T13:35:08.703Z,8.50
2019-03-31T13:37:37.189Z,8.60
2019-03-31T13:40:08.924Z,9.43
2019-03-31T13:42:37.320Z,12.20
2019-03-31T13:45:06.685Z,9.47
2019-03-31T13:47:35.167Z,10.37
2019-03-31T13:50:05.346Z,9.10
2019-03-31T13:52:33.770Z,8.23
2019-03-31T13:55:02.245Z,8.13
2019-03-31T13:57:31.883Z,8.23
2019-03-31T14:00:00.997Z,7.60
2019-03-31T14:02:29.393Z,7.67
2019-03-31T14:04:57.790Z,7.63
2019-03-31T14:07:26.676Z,7.10
2019-03-31T14:09:55.083Z,7.00
2019-03-31T14:12:23.487Z,6.97
2019-03-31T14:14:51.911Z,6.47
2019-03-31T14:17:20.312Z,6.53
2019-03-31T14:19:48.771Z,6.40
2019-03-31T14:22:17.186Z,6.43
2019-03-31T14:24:45.600Z,6.23
2019-03-31T14:27:13.974Z,6.63
2019-03-31T14:29:42.735Z,5.77
2019-03-31T14:32:11.162Z,5.87
2019-03-31T14:34:39.563Z,6.07
2019-03-31T14:37:07.978Z,5.80
2019-03-31T14:39:36.378Z,6.23
2019-03-31T14:42:04.840Z,6.13
2019-03-31T14:44:33.247Z,5.87
2019-03-31T14:47:01.671Z,5.97
2019-03-31T14:49:30.062Z,6.80
2019-03-31T14:52:01.254Z,6.27
2019-03-31T14:54:28.610Z,6.93
2019-03-31T14:56:57.016Z,6.93
2019-03-31T14:59:25.411Z,7.90
2019-03-31T15:01:53.823Z,7.00
2019-03-31T15:04:22.224Z,7.23
2019-03-31T15:06:50.648Z,9.57
2019-03-31T15:09:19.046Z,9.30
2019-03-31T15:11:47.443Z,9.30
2019-03-31T15:14:16.165Z,9.60
2019-03-31T15:16:48.090Z,10.30
2019-03-31T15:19:14.719Z,10.30
2019-03-31T15:21:44.383Z,11.30
2019-03-31T15:24:12.892Z,10.57
2019-03-31T15:26:41.324Z,12.07
2019-03-31T15:29:09.720Z,10.93
2019-03-31T15:31:38.123Z,11.43
2019-03-31T15:34:06.866Z,11.27
2019-03-31T15:36:35.268Z,12.13
2019-03-31T15:39:08.955Z,13.27
2019-03-31T15:41:36.000Z,12.73
2019-03-31T15:44:04.848Z,12.73
2019-03-31T15:46:33.289Z,13.27
2019-03-31T15:49:01.689Z,12.83
2019-03-31T15:51:30.094Z,13.10
2019-03-31T15:53:58.545Z,14.47
2019-03-31T15:56:26.944Z,16.57
2019-03-31T15:58:55.339Z,17.50
2019-03-31T16:01:23.771Z,17.80
2019-03-31T16:03:52.242Z,19.53
2019-03-31T16:06:20.647Z,20.40
2019-03-31T16:08:49.073Z,30.00
2019-03-31T16:11:17.476Z,23.70
2019-03-31T16:13:45.906Z,26.03
2019-03-31T16:16:14.485Z,26.30
2019-03-31T16:18:42.896Z,30.13
2019-03-31T16:21:12.499Z,29.80
2019-03-31T16:23:40.862Z,34.57
2019-03-31T16:26:09.267Z,34.23
2019-03-31T16:28:37.697Z,34.10
2019-03-31T16:31:06.107Z,34.40
2019-03-31T16:33:34.507Z,36.33
2019-03-31T16:36:02.959Z,36.17
2019-03-31T16:38:31.338Z,35.33
2019-03-31T16:40:59.744Z,35.93
2019-03-31T16:43:28.163Z,36.70
2019-03-31T16:45:56.574Z,37.40
2019-03-31T16:48:24.974Z,38.03
2019-03-31T16:50:53.396Z,48.77
2019-03-31T16:53:21.803Z,32.70
2019-03-31T16:55:50.214Z,32.30
2019-03-31T16:58:18.639Z,32.43
2019-03-31T17:00:47.042Z,31.20
2019-03-31T17:03:18.210Z,33.03
2019-03-31T17:05:45.584Z,32.60
2019-03-31T17:08:13.978Z,36.43
2019-03-31T17:10:42.730Z,34.87
2019-03-31T17:13:11.144Z,36.27
2019-03-31T17:15:39.552Z,35.60
2019-03-31T17:18:07.967Z,39.87
2019-03-31T17:20:36.373Z,39.47
2019-03-31T17:23:04.771Z,35.63
2019-03-31T17:25:33.205Z,34.50
2019-03-31T17:28:01.597Z,32.10
2019-03-31T17:30:30.000Z,30.63
2019-03-31T17:32:58.424Z,31.53
2019-03-31T17:35:26.834Z,30.40
2019-03-31T17:37:55.248Z,31.97
2019-03-31T17:40:24.383Z,32.07
2019-03-31T17:42:52.793Z,32.00
2019-03-31T17:45:21.202Z,30.27
2019-03-31T17:47:49.623Z,30.30
2019-03-31T17:50:18.047Z,30.50
2019-03-31T17:52:46.519Z,29.67
2019-03-31T17:55:14.916Z,29.23
2019-03-31T17:57:43.348Z,29.63
2019-03-31T18:00:12.391Z,29.07
2019-03-31T18:02:41.032Z,28.27
2019-03-31T18:05:09.594Z,27.67
2019-03-31T18:07:38.053Z,26.97
2019-03-31T18:10:19.991Z,39.83
2019-03-31T18:12:38.049Z,24.40
2019-03-31T18:15:06.690Z,25.33
2019-03-31T18:17:35.097Z,25.97
2019-03-31T18:20:04.856Z,23.90
2019-03-31T18:22:33.257Z,24.17
2019-03-31T18:25:01.681Z,23.60
2019-03-31T18:27:30.092Z,23.03
2019-03-31T18:29:58.496Z,23.20
2019-03-31T18:32:26.922Z,24.00
2019-03-31T18:34:55.337Z,22.30
2019-03-31T18:37:23.743Z,39.97
2019-03-31T18:39:52.161Z,22.97
2019-03-31T18:42:20.585Z,22.43
2019-03-31T18:44:49.037Z,22.60
2019-03-31T18:47:17.426Z,22.10
2019-03-31T18:49:45.820Z,21.03
2019-03-31T18:52:14.255Z,22.80
2019-03-31T18:55:02.303Z,22.93
2019-03-31T18:57:38.110Z,21.27
2019-03-31T19:00:17.444Z,22.50
2019-03-31T19:02:50.170Z,20.03
2019-03-31T19:05:36.644Z,18.47
2019-03-31T19:08:22.682Z,19.77
2019-03-31T19:10:58.172Z,20.07
2019-03-31T19:13:54.690Z,18.83
2019-03-31T19:16:15.656Z,17.33
2019-03-31T19:18:45.695Z,20.47
2019-03-31T19:21:15.745Z,19.53
2019-03-31T19:24:05.482Z,21.07
2019-03-31T19:26:48.114Z,20.67
2019-03-31T19:29:11.909Z,21.40
2019-03-31T19:31:58.060Z,19.03
2019-03-31T19:34:36.741Z,17.67
2019-03-31T19:37:06.784Z,18.30
2019-03-31T19:39:49.071Z,18.90
2019-03-31T19:42:21.770Z,18.03
2019-03-31T19:44:54.606Z,20.37
2019-03-31T19:47:24.681Z,18.23
2019-03-31T19:49:55.144Z,19.83
2019-03-31T19:52:41.555Z,19.63
2019-03-31T19:55:26.920Z,18.80
2019-03-31T19:58:02.641Z,17.63
2019-03-31T20:00:32.679Z,20.73
2019-03-31T20:03:05.877Z,18.23
2019-03-31T20:05:53.853Z,16.10
2019-03-31T20:08:35.828Z,17.83
2019-03-31T20:11:15.129Z,18.13
2019-03-31T20:13:48.058Z,17.20
2019-03-31T20:16:18.102Z,19.37
2019-03-31T20:19:03.398Z,18.77
2019-03-31T20:21:33.428Z,20.17
2019-03-31T20:24:12.603Z,22.47
2019-03-31T20:26:48.572Z,20.67
2019-03-31T20:29:18.604Z,22.00
2019-03-31T20:31:48.674Z,23.87
2019-03-31T20:34:18.720Z,23.07
2019-03-31T20:36:54.759Z,24.23
2019-03-31T20:39:25.162Z,21.60
2019-03-31T20:42:00.701Z,20.37
2019-03-31T20:44:29.092Z,23.07
2019-03-31T20:46:57.527Z,23.73
2019-03-31T20:49:25.926Z,26.20
2019-03-31T20:51:54.329Z,22.37
2019-03-31T20:54:22.760Z,22.20
2019-03-31T20:56:51.162Z,26.00
2019-03-31T20:59:19.561Z,40.97
2019-03-31T21:01:47.980Z,25.70
2019-03-31T21:04:16.377Z,25.90
2019-03-31T21:06:44.782Z,26.30
2019-03-31T21:09:13.201Z,26.30
2019-03-31T21:11:41.602Z,27.15
2019-03-31T21:14:10.004Z,26.87
2019-03-31T21:16:38.447Z,26.17
2019-03-31T21:19:06.850Z,25.13
2019-03-31T21:21:35.243Z,28.03
2019-03-31T21:24:03.655Z,25.03
2019-03-31T21:26:32.367Z,27.97
2019-03-31T21:29:00.762Z,27.93
2019-03-31T21:31:29.339Z,26.67
2019-03-31T21:33:57.729Z,26.43
2019-03-31T21:36:26.198Z,26.70
2019-03-31T21:38:54.539Z,27.00
2019-03-31T21:41:22.942Z,28.07
2019-03-31T21:43:51.341Z,27.23
2019-03-31T21:46:19.778Z,26.70
2019-03-31T21:48:48.171Z,25.67
2019-03-31T21:51:16.571Z,25.82
2019-03-31T21:53:44.983Z,27.30
2019-03-31T21:56:13.387Z,26.37
2019-03-31T21:58:41.790Z,26.07
2019-03-31T22:01:10.308Z,27.20
2019-03-31T22:03:38.702Z,25.13
2019-03-31T22:06:07.112Z,26.17
2019-03-31T22:08:35.785Z,26.50
2019-03-31T22:11:04.194Z,25.70
2019-03-31T22:13:32.616Z,25.67
2019-03-31T22:16:01.026Z,25.90
2019-03-31T22:18:29.416Z,26.30
2019-03-31T22:20:57.848Z,25.37
2019-03-31T22:23:26.242Z,24.70
2019-03-31T22:25:54.643Z,26.30
2019-03-31T22:28:23.050Z,23.97
2019-03-31T22:30:51.451Z,25.40
2019-03-31T22:33:19.867Z,25.87
2019-03-31T22:36:06.362Z,25.03
2019-03-31T22:38:34.780Z,24.10
2019-03-31T22:41:03.171Z,24.10
2019-03-31T22:43:31.562Z,23.30
2019-03-31T22:46:00.122Z,23.13
2019-03-31T22:48:28.519Z,22.83
2019-03-31T22:50:56.922Z,22.77
2019-03-31T22:53:25.360Z,22.23
2019-03-31T22:55:53.759Z,23.07
2019-03-31T22:58:22.151Z,23.13
2019-03-31T23:00:50.850Z,22.87
2019-03-31T23:03:19.240Z,21.77
2019-03-31T23:05:47.645Z,22.13
2019-03-31T23:08:16.067Z,37.37
2019-03-31T23:10:44.735Z,22.32
2019-03-31T23:13:13.187Z,20.47
2019-03-31T23:15:41.581Z,20.97
2019-03-31T23:18:09.975Z,21.30
2019-03-31T23:20:38.396Z,20.77
2019-03-31T23:23:06.801Z,21.53
2019-03-31T23:25:35.189Z,20.87
2019-03-31T23:28:03.613Z,20.17
2019-03-31T23:30:32.011Z,21.77
2019-03-31T23:33:00.406Z,20.67
2019-03-31T23:35:28.833Z,19.27
2019-03-31T23:37:57.232Z,19.70
2019-03-31T23:40:25.625Z,20.47
2019-03-31T23:42:54.383Z,81.00
2019-03-31T23:45:22.735Z,19.77
2019-03-31T23:47:51.129Z,18.97
2019-03-31T23:50:19.555Z,18.60
2019-03-31T23:52:47.954Z,18.37
2019-03-31T23:55:16.359Z,17.60
2019-03-31T23:57:45.044Z,18.73
